sensor_id;sensor_type;location;lat;lon;timestamp;temperature;humidity
19652;DHT22;9974;52.146;14.668;2023-08-24T00:01:10;17.80;99.90
19652;DHT22;9974;52.146;14.668;2023-08-24T00:03:37;18.00;99.90
19652;DHT22;9974;52.146;14.668;2023-08-24T00:06:03;17.50;99.90
19652;DHT22;9974;52.146;14.668;2023-08-24T00:08:29;17.90;99.90
19652;DHT22;9974;52.146;14.668;2023-08-24T00:10:55;17.10;99.90
19652;DHT22;9974;52.146;14.668;2023-08-24T00:13:21;17.10;99.90
19652;DHT22;9974;52.146;14.668;2023-08-24T00:15:46;17.10;99.90
19652;DHT22;9974;52.146;14.668;2023-08-24T00:18:12;17.60;99.90
19652;DHT22;9974;52.146;14.668;2023-08-24T00:20:38;16.80;99.90
19652;DHT22;9974;52.146;14.668;2023-08-24T00:23:04;16.80;99.90
19652;DHT22;9974;52.146;14.668;2023-08-24T00:25:30;17.30;99.90
19652;DHT22;9974;52.146;14.668;2023-08-24T00:27:56;17.10;99.90
19652;DHT22;9974;52.146;14.668;2023-08-24T00:30:23;17.30;99.90
19652;DHT22;9974;52.146;14.668;2023-08-24T00:32:49;17.20;99.90
19652;DHT22;9974;52.146;14.668;2023-08-24T00:35:15;17.20;99.90
19652;DHT22;9974;52.146;14.668;2023-08-24T00:37:41;16.90;99.90
19652;DHT22;9974;52.146;14.668;2023-08-24T00:40:08;17.20;99.90
19652;DHT22;9974;52.146;14.668;2023-08-24T00:42:42;16.40;99.90
19652;DHT22;9974;52.146;14.668;2023-08-24T00:45:10;16.60;99.90
19652;DHT22;9974;52.146;14.668;2023-08-24T00:47:42;17.10;99.90
19652;DHT22;9974;52.146;14.668;2023-08-24T00:50:10;16.80;99.90
19652;DHT22;9974;52.146;14.668;2023-08-24T00:52:37;17.20;99.90
19652;DHT22;9974;52.146;14.668;2023-08-24T00:55:05;16.70;99.90
19652;DHT22;9974;52.146;14.668;2023-08-24T00:57:31;16.90;99.90
19652;DHT22;9974;52.146;14.668;2023-08-24T01:00:02;16.80;99.90
19652;DHT22;9974;52.146;14.668;2023-08-24T01:04:58;16.20;99.90
19652;DHT22;9974;52.146;14.668;2023-08-24T01:07:24;16.70;99.90
19652;DHT22;9974;52.146;14.668;2023-08-24T01:09:51;16.20;99.90
19652;DHT22;9974;52.146;14.668;2023-08-24T01:12:34;16.60;99.90
19652;DHT22;9974;52.146;14.668;2023-08-24T01:15:43;16.50;99.90
19652;DHT22;9974;52.146;14.668;2023-08-24T01:18:16;16.10;99.90
19652;DHT22;9974;52.146;14.668;2023-08-24T01:20:44;16.00;99.90
19652;DHT22;9974;52.146;14.668;2023-08-24T01:23:23;16.80;99.90
19652;DHT22;9974;52.146;14.668;2023-08-24T01:26:28;16.30;99.90
19652;DHT22;9974;52.146;14.668;2023-08-24T01:28:54;16.40;99.90
19652;DHT22;9974;52.146;14.668;2023-08-24T01:31:19;16.10;99.90
19652;DHT22;9974;52.146;14.668;2023-08-24T01:33:45;16.20;99.90
19652;DHT22;9974;52.146;14.668;2023-08-24T01:36:14;16.60;99.90
19652;DHT22;9974;52.146;14.668;2023-08-24T01:38:42;16.50;99.90
19652;DHT22;9974;52.146;14.668;2023-08-24T01:41:22;16.70;99.90
19652;DHT22;9974;52.146;14.668;2023-08-24T01:43:53;16.80;99.90
19652;DHT22;9974;52.146;14.668;2023-08-24T01:46:21;16.70;99.90
19652;DHT22;9974;52.146;14.668;2023-08-24T01:48:48;16.50;99.90
19652;DHT22;9974;52.146;14.668;2023-08-24T01:51:15;16.60;99.90
19652;DHT22;9974;52.146;14.668;2023-08-24T01:53:41;16.10;99.90
19652;DHT22;9974;52.146;14.668;2023-08-24T01:56:11;16.60;99.90
19652;DHT22;9974;52.146;14.668;2023-08-24T01:58:38;16.60;99.90
19652;DHT22;9974;52.146;14.668;2023-08-24T02:01:05;16.70;99.90
19652;DHT22;9974;52.146;14.668;2023-08-24T02:03:31;16.00;99.90
19652;DHT22;9974;52.146;14.668;2023-08-24T02:05:57;16.20;99.90
19652;DHT22;9974;52.146;14.668;2023-08-24T02:08:22;16.40;99.90
19652;DHT22;9974;52.146;14.668;2023-08-24T02:10:48;17.00;99.90
19652;DHT22;9974;52.146;14.668;2023-08-24T02:13:14;16.50;99.90
19652;DHT22;9974;52.146;14.668;2023-08-24T02:15:39;16.50;99.90
19652;DHT22;9974;52.146;14.668;2023-08-24T02:18:06;16.30;99.90
19652;DHT22;9974;52.146;14.668;2023-08-24T02:20:36;15.90;99.90
19652;DHT22;9974;52.146;14.668;2023-08-24T02:23:06;15.40;99.90
19652;DHT22;9974;52.146;14.668;2023-08-24T02:30:25;16.00;99.90
19652;DHT22;9974;52.146;14.668;2023-08-24T02:40:10;15.80;99.90
19652;DHT22;9974;52.146;14.668;2023-08-24T02:42:36;15.60;99.90
19652;DHT22;9974;52.146;14.668;2023-08-24T02:45:02;16.10;99.90
19652;DHT22;9974;52.146;14.668;2023-08-24T02:49:55;16.00;99.90
19652;DHT22;9974;52.146;14.668;2023-08-24T02:54:47;15.40;99.90
19652;DHT22;9974;52.146;14.668;2023-08-24T02:57:12;15.70;99.90
19652;DHT22;9974;52.146;14.668;2023-08-24T02:59:38;15.70;99.90
19652;DHT22;9974;52.146;14.668;2023-08-24T03:02:04;15.80;99.90
19652;DHT22;9974;52.146;14.668;2023-08-24T03:04:30;15.80;99.90
19652;DHT22;9974;52.146;14.668;2023-08-24T03:06:55;15.30;99.90
19652;DHT22;9974;52.146;14.668;2023-08-24T03:09:22;15.60;99.90
19652;DHT22;9974;52.146;14.668;2023-08-24T03:14:13;14.70;99.90
19652;DHT22;9974;52.146;14.668;2023-08-24T03:16:39;15.20;99.90
19652;DHT22;9974;52.146;14.668;2023-08-24T03:19:05;14.50;99.90
19652;DHT22;9974;52.146;14.668;2023-08-24T03:21:30;14.80;99.90
19652;DHT22;9974;52.146;14.668;2023-08-24T03:26:22;15.10;99.90
19652;DHT22;9974;52.146;14.668;2023-08-24T03:28:49;14.80;99.90
19652;DHT22;9974;52.146;14.668;2023-08-24T03:31:15;14.90;99.90
19652;DHT22;9974;52.146;14.668;2023-08-24T03:33:41;15.20;99.90
19652;DHT22;9974;52.146;14.668;2023-08-24T03:36:07;14.70;99.90
19652;DHT22;9974;52.146;14.668;2023-08-24T03:38:33;14.50;99.90
19652;DHT22;9974;52.146;14.668;2023-08-24T03:41:02;14.70;99.90
19652;DHT22;9974;52.146;14.668;2023-08-24T03:43:31;15.20;99.90
19652;DHT22;9974;52.146;14.668;2023-08-24T03:45:58;15.10;99.90
19652;DHT22;9974;52.146;14.668;2023-08-24T03:48:24;14.40;99.90
19652;DHT22;9974;52.146;14.668;2023-08-24T03:53:18;14.30;99.90
19652;DHT22;9974;52.146;14.668;2023-08-24T03:55:47;14.70;99.90
19652;DHT22;9974;52.146;14.668;2023-08-24T04:03:07;14.40;99.90
19652;DHT22;9974;52.146;14.668;2023-08-24T04:05:33;14.50;99.90
19652;DHT22;9974;52.146;14.668;2023-08-24T04:07:59;15.10;99.90
19652;DHT22;9974;52.146;14.668;2023-08-24T04:10:26;14.30;99.90
19652;DHT22;9974;52.146;14.668;2023-08-24T04:12:52;15.00;99.90
19652;DHT22;9974;52.146;14.668;2023-08-24T04:15:18;14.30;99.90
19652;DHT22;9974;52.146;14.668;2023-08-24T04:20:11;15.00;99.90
19652;DHT22;9974;52.146;14.668;2023-08-24T04:22:36;14.50;99.90
19652;DHT22;9974;52.146;14.668;2023-08-24T04:25:02;15.40;99.90
19652;DHT22;9974;52.146;14.668;2023-08-24T04:27:28;14.90;99.90
19652;DHT22;9974;52.146;14.668;2023-08-24T04:34:47;15.50;99.90
19652;DHT22;9974;52.146;14.668;2023-08-24T04:37:13;15.00;99.90
19652;DHT22;9974;52.146;14.668;2023-08-24T04:39:38;14.70;99.90
19652;DHT22;9974;52.146;14.668;2023-08-24T04:42:04;14.90;99.90
19652;DHT22;9974;52.146;14.668;2023-08-24T04:46:57;15.40;99.90
19652;DHT22;9974;52.146;14.668;2023-08-24T04:49:23;14.60;99.90
19652;DHT22;9974;52.146;14.668;2023-08-24T04:51:49;14.40;99.90
19652;DHT22;9974;52.146;14.668;2023-08-24T04:54:14;15.30;99.90
19652;DHT22;9974;52.146;14.668;2023-08-24T04:56:40;14.70;99.90
19652;DHT22;9974;52.146;14.668;2023-08-24T05:01:33;14.90;99.90
19652;DHT22;9974;52.146;14.668;2023-08-24T05:03:59;15.30;99.90
19652;DHT22;9974;52.146;14.668;2023-08-24T05:06:25;15.30;99.90
19652;DHT22;9974;52.146;14.668;2023-08-24T05:08:51;14.80;99.90
19652;DHT22;9974;52.146;14.668;2023-08-24T05:11:18;15.60;99.90
19652;DHT22;9974;52.146;14.668;2023-08-24T05:13:51;15.30;99.90
19652;DHT22;9974;52.146;14.668;2023-08-24T05:18:43;15.40;99.90
19652;DHT22;9974;52.146;14.668;2023-08-24T05:23:35;15.40;99.90
19652;DHT22;9974;52.146;14.668;2023-08-24T05:26:02;16.00;99.90
19652;DHT22;9974;52.146;14.668;2023-08-24T05:28:29;15.80;99.90
19652;DHT22;9974;52.146;14.668;2023-08-24T05:30:56;15.40;99.90
19652;DHT22;9974;52.146;14.668;2023-08-24T05:33:23;15.90;99.90
19652;DHT22;9974;52.146;14.668;2023-08-24T05:35:51;15.70;99.90
19652;DHT22;9974;52.146;14.668;2023-08-24T05:38:17;16.30;99.90
19652;DHT22;9974;52.146;14.668;2023-08-24T05:40:43;16.40;99.90
19652;DHT22;9974;52.146;14.668;2023-08-24T05:43:12;16.30;99.90
19652;DHT22;9974;52.146;14.668;2023-08-24T05:45:38;16.30;99.90
19652;DHT22;9974;52.146;14.668;2023-08-24T05:48:09;16.30;99.90
19652;DHT22;9974;52.146;14.668;2023-08-24T05:50:35;16.60;99.90
19652;DHT22;9974;52.146;14.668;2023-08-24T05:53:03;16.80;99.90
19652;DHT22;9974;52.146;14.668;2023-08-24T05:55:28;17.10;99.90
19652;DHT22;9974;52.146;14.668;2023-08-24T05:57:54;17.10;99.90
19652;DHT22;9974;52.146;14.668;2023-08-24T06:00:20;16.60;99.90
19652;DHT22;9974;52.146;14.668;2023-08-24T06:02:47;17.20;99.90
19652;DHT22;9974;52.146;14.668;2023-08-24T06:05:13;16.90;99.90
19652;DHT22;9974;52.146;14.668;2023-08-24T06:07:38;16.80;99.90
19652;DHT22;9974;52.146;14.668;2023-08-24T06:10:05;17.70;99.90
19652;DHT22;9974;52.146;14.668;2023-08-24T06:12:31;17.30;99.90
19652;DHT22;9974;52.146;14.668;2023-08-24T06:19:48;17.70;99.90
19652;DHT22;9974;52.146;14.668;2023-08-24T06:22:14;17.80;99.90
19652;DHT22;9974;52.146;14.668;2023-08-24T06:24:40;18.10;99.90
19652;DHT22;9974;52.146;14.668;2023-08-24T06:27:05;18.40;99.90
19652;DHT22;9974;52.146;14.668;2023-08-24T06:29:31;18.60;99.90
19652;DHT22;9974;52.146;14.668;2023-08-24T06:31:57;18.20;99.90
19652;DHT22;9974;52.146;14.668;2023-08-24T06:34:22;18.60;99.90
19652;DHT22;9974;52.146;14.668;2023-08-24T06:36:50;18.70;99.90
19652;DHT22;9974;52.146;14.668;2023-08-24T06:39:16;18.80;99.90
19652;DHT22;9974;52.146;14.668;2023-08-24T06:41:41;19.50;99.90
19652;DHT22;9974;52.146;14.668;2023-08-24T06:44:07;19.30;99.90
19652;DHT22;9974;52.146;14.668;2023-08-24T06:46:33;19.10;99.90
19652;DHT22;9974;52.146;14.668;2023-08-24T06:48:59;19.50;99.90
19652;DHT22;9974;52.146;14.668;2023-08-24T06:51:27;19.70;99.90
19652;DHT22;9974;52.146;14.668;2023-08-24T06:53:54;19.90;99.90
19652;DHT22;9974;52.146;14.668;2023-08-24T06:58:48;19.90;99.90
19652;DHT22;9974;52.146;14.668;2023-08-24T07:01:13;19.80;99.90
19652;DHT22;9974;52.146;14.668;2023-08-24T07:03:39;19.80;99.90
19652;DHT22;9974;52.146;14.668;2023-08-24T07:06:06;19.80;99.90
19652;DHT22;9974;52.146;14.668;2023-08-24T07:08:33;20.60;99.90
19652;DHT22;9974;52.146;14.668;2023-08-24T07:10:59;20.80;99.90
19652;DHT22;9974;52.146;14.668;2023-08-24T07:13:24;20.10;99.90
19652;DHT22;9974;52.146;14.668;2023-08-24T07:15:51;20.90;99.90
19652;DHT22;9974;52.146;14.668;2023-08-24T07:18:17;20.60;99.90
19652;DHT22;9974;52.146;14.668;2023-08-24T07:20:43;20.80;99.90
19652;DHT22;9974;52.146;14.668;2023-08-24T07:23:08;21.00;99.90
19652;DHT22;9974;52.146;14.668;2023-08-24T07:25:34;21.70;99.90
19652;DHT22;9974;52.146;14.668;2023-08-24T07:28:00;21.40;99.90
19652;DHT22;9974;52.146;14.668;2023-08-24T07:30:28;21.60;99.90
19652;DHT22;9974;52.146;14.668;2023-08-24T07:32:54;22.40;99.90
19652;DHT22;9974;52.146;14.668;2023-08-24T07:35:20;21.70;99.90
19652;DHT22;9974;52.146;14.668;2023-08-24T07:37:47;22.10;99.90
19652;DHT22;9974;52.146;14.668;2023-08-24T07:40:14;22.00;99.90
19652;DHT22;9974;52.146;14.668;2023-08-24T07:42:48;22.20;99.90
19652;DHT22;9974;52.146;14.668;2023-08-24T07:45:16;22.20;99.90
19652;DHT22;9974;52.146;14.668;2023-08-24T07:50:10;22.80;99.90
19652;DHT22;9974;52.146;14.668;2023-08-24T07:52:40;23.80;99.90
19652;DHT22;9974;52.146;14.668;2023-08-24T07:55:07;24.20;99.90
19652;DHT22;9974;52.146;14.668;2023-08-24T07:57:34;24.40;99.90
19652;DHT22;9974;52.146;14.668;2023-08-24T07:59:59;24.20;99.90
19652;DHT22;9974;52.146;14.668;2023-08-24T08:02:25;24.00;99.90
19652;DHT22;9974;52.146;14.668;2023-08-24T08:14:39;24.90;99.90
19652;DHT22;9974;52.146;14.668;2023-08-24T08:17:05;25.20;99.90
19652;DHT22;9974;52.146;14.668;2023-08-24T08:19:30;25.50;99.90
19652;DHT22;9974;52.146;14.668;2023-08-24T08:21:57;25.90;99.90
19652;DHT22;9974;52.146;14.668;2023-08-24T08:24:23;26.10;99.90
19652;DHT22;9974;52.146;14.668;2023-08-24T08:26:49;26.00;99.90
19652;DHT22;9974;52.146;14.668;2023-08-24T08:29:14;26.20;99.90
19652;DHT22;9974;52.146;14.668;2023-08-24T08:31:41;26.10;99.90
19652;DHT22;9974;52.146;14.668;2023-08-24T08:34:07;26.10;99.90
19652;DHT22;9974;52.146;14.668;2023-08-24T08:36:32;26.20;99.90
19652;DHT22;9974;52.146;14.668;2023-08-24T08:38:59;26.30;99.90
19652;DHT22;9974;52.146;14.668;2023-08-24T08:41:27;26.90;99.90
19652;DHT22;9974;52.146;14.668;2023-08-24T08:43:56;27.30;99.90
19652;DHT22;9974;52.146;14.668;2023-08-24T08:46:22;27.70;99.90
19652;DHT22;9974;52.146;14.668;2023-08-24T08:48:49;28.20;99.90
19652;DHT22;9974;52.146;14.668;2023-08-24T08:51:17;30.10;99.90
19652;DHT22;9974;52.146;14.668;2023-08-24T08:53:43;29.90;99.90
19652;DHT22;9974;52.146;14.668;2023-08-24T08:56:09;29.30;95.70
19652;DHT22;9974;52.146;14.668;2023-08-24T08:58:36;29.90;97.00
19652;DHT22;9974;52.146;14.668;2023-08-24T09:01:03;29.60;94.30
19652;DHT22;9974;52.146;14.668;2023-08-24T09:03:31;29.20;95.60
19652;DHT22;9974;52.146;14.668;2023-08-24T09:05:57;31.30;95.80
19652;DHT22;9974;52.146;14.668;2023-08-24T09:08:28;29.30;94.60
19652;DHT22;9974;52.146;14.668;2023-08-24T09:10:54;29.80;94.30
19652;DHT22;9974;52.146;14.668;2023-08-24T09:13:21;29.20;90.10
19652;DHT22;9974;52.146;14.668;2023-08-24T09:15:46;28.90;90.80
19652;DHT22;9974;52.146;14.668;2023-08-24T09:18:12;28.60;90.50
19652;DHT22;9974;52.146;14.668;2023-08-24T09:20:38;28.50;90.00
19652;DHT22;9974;52.146;14.668;2023-08-24T09:23:04;27.80;91.30
19652;DHT22;9974;52.146;14.668;2023-08-24T09:25:29;28.00;93.80
19652;DHT22;9974;52.146;14.668;2023-08-24T09:28:02;28.40;94.00
19652;DHT22;9974;52.146;14.668;2023-08-24T09:30:34;28.20;91.50
19652;DHT22;9974;52.146;14.668;2023-08-24T09:33:02;28.00;93.40
19652;DHT22;9974;52.146;14.668;2023-08-24T09:35:37;27.80;90.70
19652;DHT22;9974;52.146;14.668;2023-08-24T09:38:22;27.10;91.60
19652;DHT22;9974;52.146;14.668;2023-08-24T09:40:52;27.20;91.10
19652;DHT22;9974;52.146;14.668;2023-08-24T09:43:19;26.70;91.30
19652;DHT22;9974;52.146;14.668;2023-08-24T09:45:56;26.80;89.70
19652;DHT22;9974;52.146;14.668;2023-08-24T09:48:22;27.00;92.10
19652;DHT22;9974;52.146;14.668;2023-08-24T09:50:51;26.80;92.20
19652;DHT22;9974;52.146;14.668;2023-08-24T09:53:21;27.10;92.40
19652;DHT22;9974;52.146;14.668;2023-08-24T09:55:55;27.30;89.50
19652;DHT22;9974;52.146;14.668;2023-08-24T09:58:24;27.40;91.00
19652;DHT22;9974;52.146;14.668;2023-08-24T10:00:51;27.40;91.70
19652;DHT22;9974;52.146;14.668;2023-08-24T10:03:24;27.60;91.40
19652;DHT22;9974;52.146;14.668;2023-08-24T10:05:55;27.50;87.70
19652;DHT22;9974;52.146;14.668;2023-08-24T10:08:37;27.60;92.50
19652;DHT22;9974;52.146;14.668;2023-08-24T10:11:05;27.90;91.30
19652;DHT22;9974;52.146;14.668;2023-08-24T10:13:36;28.30;91.80
19652;DHT22;9974;52.146;14.668;2023-08-24T10:16:16;27.80;90.90
19652;DHT22;9974;52.146;14.668;2023-08-24T10:18:43;27.80;93.10
19652;DHT22;9974;52.146;14.668;2023-08-24T10:21:09;27.90;91.10
19652;DHT22;9974;52.146;14.668;2023-08-24T10:23:37;27.80;90.10
19652;DHT22;9974;52.146;14.668;2023-08-24T10:26:06;27.80;90.80
19652;DHT22;9974;52.146;14.668;2023-08-24T10:28:33;27.70;90.90
19652;DHT22;9974;52.146;14.668;2023-08-24T10:30:59;29.10;91.50
19652;DHT22;9974;52.146;14.668;2023-08-24T10:33:26;28.30;90.40
19652;DHT22;9974;52.146;14.668;2023-08-24T10:35:53;27.70;90.70
19652;DHT22;9974;52.146;14.668;2023-08-24T10:38:29;28.00;90.90
19652;DHT22;9974;52.146;14.668;2023-08-24T10:41:02;27.80;90.20
19652;DHT22;9974;52.146;14.668;2023-08-24T10:43:29;27.20;90.60
19652;DHT22;9974;52.146;14.668;2023-08-24T10:46:02;27.30;90.90
19652;DHT22;9974;52.146;14.668;2023-08-24T10:53:40;28.00;89.20
19652;DHT22;9974;52.146;14.668;2023-08-24T10:56:16;27.00;84.40
19652;DHT22;9974;52.146;14.668;2023-08-24T10:58:47;26.90;91.30
19652;DHT22;9974;52.146;14.668;2023-08-24T11:01:17;27.00;87.20
19652;DHT22;9974;52.146;14.668;2023-08-24T11:03:49;27.40;89.10
19652;DHT22;9974;52.146;14.668;2023-08-24T11:06:24;27.70;87.50
19652;DHT22;9974;52.146;14.668;2023-08-24T11:09:09;27.20;86.90
19652;DHT22;9974;52.146;14.668;2023-08-24T11:11:39;27.70;89.60
19652;DHT22;9974;52.146;14.668;2023-08-24T11:14:20;28.00;89.10
19652;DHT22;9974;52.146;14.668;2023-08-24T11:16:48;28.20;90.50
19652;DHT22;9974;52.146;14.668;2023-08-24T11:19:15;28.90;88.60
19652;DHT22;9974;52.146;14.668;2023-08-24T11:21:43;29.50;83.50
19652;DHT22;9974;52.146;14.668;2023-08-24T11:24:14;28.90;82.30
19652;DHT22;9974;52.146;14.668;2023-08-24T11:26:46;28.90;79.40
19652;DHT22;9974;52.146;14.668;2023-08-24T11:29:12;29.20;80.40
19652;DHT22;9974;52.146;14.668;2023-08-24T11:31:39;29.50;79.70
19652;DHT22;9974;52.146;14.668;2023-08-24T11:34:05;29.90;81.30
19652;DHT22;9974;52.146;14.668;2023-08-24T11:36:41;30.20;79.20
19652;DHT22;9974;52.146;14.668;2023-08-24T11:41:56;30.90;76.30
19652;DHT22;9974;52.146;14.668;2023-08-24T11:44:44;31.20;78.80
19652;DHT22;9974;52.146;14.668;2023-08-24T11:47:13;32.00;76.70
19652;DHT22;9974;52.146;14.668;2023-08-24T11:49:39;32.10;70.70
19652;DHT22;9974;52.146;14.668;2023-08-24T11:52:05;32.50;72.30
19652;DHT22;9974;52.146;14.668;2023-08-24T11:54:36;32.90;67.40
19652;DHT22;9974;52.146;14.668;2023-08-24T11:57:08;33.20;71.70
19652;DHT22;9974;52.146;14.668;2023-08-24T11:59:38;34.00;69.50
19652;DHT22;9974;52.146;14.668;2023-08-24T12:02:04;34.40;66.80
19652;DHT22;9974;52.146;14.668;2023-08-24T12:04:40;35.10;65.90
19652;DHT22;9974;52.146;14.668;2023-08-24T12:07:11;35.10;62.70
19652;DHT22;9974;52.146;14.668;2023-08-24T12:09:39;35.60;63.60
19652;DHT22;9974;52.146;14.668;2023-08-24T12:12:05;35.80;61.00
19652;DHT22;9974;52.146;14.668;2023-08-24T12:14:46;36.30;57.90
19652;DHT22;9974;52.146;14.668;2023-08-24T12:17:13;36.30;58.50
19652;DHT22;9974;52.146;14.668;2023-08-24T12:19:43;35.80;56.60
19652;DHT22;9974;52.146;14.668;2023-08-24T12:22:16;35.40;57.80
19652;DHT22;9974;52.146;14.668;2023-08-24T12:24:46;34.80;60.00
19652;DHT22;9974;52.146;14.668;2023-08-24T12:27:23;34.70;58.80
19652;DHT22;9974;52.146;14.668;2023-08-24T12:32:16;34.90;57.50
19652;DHT22;9974;52.146;14.668;2023-08-24T12:34:49;34.40;56.60
19652;DHT22;9974;52.146;14.668;2023-08-24T12:37:17;32.50;59.50
19652;DHT22;9974;52.146;14.668;2023-08-24T12:39:42;32.50;59.40
19652;DHT22;9974;52.146;14.668;2023-08-24T12:42:08;32.70;61.00
19652;DHT22;9974;52.146;14.668;2023-08-24T12:44:34;32.70;59.30
19652;DHT22;9974;52.146;14.668;2023-08-24T12:47:01;32.00;61.60
19652;DHT22;9974;52.146;14.668;2023-08-24T12:49:28;32.50;60.60
19652;DHT22;9974;52.146;14.668;2023-08-24T12:51:53;33.10;61.40
19652;DHT22;9974;52.146;14.668;2023-08-24T12:54:19;32.90;60.50
19652;DHT22;9974;52.146;14.668;2023-08-24T12:56:44;32.30;61.50
19652;DHT22;9974;52.146;14.668;2023-08-24T12:59:10;32.60;62.20
19652;DHT22;9974;52.146;14.668;2023-08-24T13:01:37;32.50;62.00
19652;DHT22;9974;52.146;14.668;2023-08-24T13:04:04;32.20;63.40
19652;DHT22;9974;52.146;14.668;2023-08-24T13:06:30;32.10;62.40
19652;DHT22;9974;52.146;14.668;2023-08-24T13:08:56;32.10;64.30
19652;DHT22;9974;52.146;14.668;2023-08-24T13:11:22;32.10;63.60
19652;DHT22;9974;52.146;14.668;2023-08-24T13:13:48;32.10;64.40
19652;DHT22;9974;52.146;14.668;2023-08-24T13:18:41;31.80;62.80
19652;DHT22;9974;52.146;14.668;2023-08-24T13:25:59;31.40;64.50
19652;DHT22;9974;52.146;14.668;2023-08-24T13:28:25;31.40;65.10
19652;DHT22;9974;52.146;14.668;2023-08-24T13:30:51;31.10;66.80
19652;DHT22;9974;52.146;14.668;2023-08-24T13:33:17;31.00;67.10
19652;DHT22;9974;52.146;14.668;2023-08-24T13:35:45;30.80;67.10
19652;DHT22;9974;52.146;14.668;2023-08-24T13:38:10;30.90;67.50
19652;DHT22;9974;52.146;14.668;2023-08-24T13:40:36;30.60;68.00
19652;DHT22;9974;52.146;14.668;2023-08-24T13:43:02;31.10;68.40
19652;DHT22;9974;52.146;14.668;2023-08-24T13:45:27;31.30;69.40
19652;DHT22;9974;52.146;14.668;2023-08-24T13:52:49;30.90;68.90
19652;DHT22;9974;52.146;14.668;2023-08-24T13:57:42;30.60;69.30
19652;DHT22;9974;52.146;14.668;2023-08-24T14:00:08;30.40;69.60
19652;DHT22;9974;52.146;14.668;2023-08-24T14:02:34;30.00;68.90
19652;DHT22;9974;52.146;14.668;2023-08-24T14:07:26;30.10;68.80
19652;DHT22;9974;52.146;14.668;2023-08-24T14:09:52;29.90;70.20
19652;DHT22;9974;52.146;14.668;2023-08-24T14:12:17;30.40;71.10
19652;DHT22;9974;52.146;14.668;2023-08-24T14:14:43;30.10;69.90
19652;DHT22;9974;52.146;14.668;2023-08-24T14:17:09;29.90;70.10
19652;DHT22;9974;52.146;14.668;2023-08-24T14:19:34;30.00;70.40
19652;DHT22;9974;52.146;14.668;2023-08-24T14:22:00;29.90;69.70
19652;DHT22;9974;52.146;14.668;2023-08-24T14:24:26;29.60;70.10
19652;DHT22;9974;52.146;14.668;2023-08-24T14:29:17;29.60;70.80
19652;DHT22;9974;52.146;14.668;2023-08-24T14:31:43;30.10;70.90
19652;DHT22;9974;52.146;14.668;2023-08-24T14:36:35;29.70;71.20
19652;DHT22;9974;52.146;14.668;2023-08-24T14:39:01;29.80;71.90
19652;DHT22;9974;52.146;14.668;2023-08-24T14:41:27;30.20;72.10
19652;DHT22;9974;52.146;14.668;2023-08-24T14:43:52;29.70;71.20
19652;DHT22;9974;52.146;14.668;2023-08-24T14:46:18;29.70;70.50
19652;DHT22;9974;52.146;14.668;2023-08-24T14:48:44;29.70;69.70
19652;DHT22;9974;52.146;14.668;2023-08-24T14:51:09;29.40;70.60
19652;DHT22;9974;52.146;14.668;2023-08-24T14:53:35;29.30;72.10
19652;DHT22;9974;52.146;14.668;2023-08-24T14:56:01;29.50;71.20
19652;DHT22;9974;52.146;14.668;2023-08-24T14:58:27;29.30;71.80
19652;DHT22;9974;52.146;14.668;2023-08-24T15:00:57;29.20;72.20
19652;DHT22;9974;52.146;14.668;2023-08-24T15:03:23;29.00;72.20
19652;DHT22;9974;52.146;14.668;2023-08-24T15:06:01;28.90;70.50
19652;DHT22;9974;52.146;14.668;2023-08-24T15:08:29;29.20;73.10
19652;DHT22;9974;52.146;14.668;2023-08-24T15:10:58;29.40;68.80
19652;DHT22;9974;52.146;14.668;2023-08-24T15:13:25;29.20;73.10
19652;DHT22;9974;52.146;14.668;2023-08-24T15:15:54;28.90;72.90
19652;DHT22;9974;52.146;14.668;2023-08-24T15:18:21;28.80;73.70
19652;DHT22;9974;52.146;14.668;2023-08-24T15:20:47;28.90;73.30
19652;DHT22;9974;52.146;14.668;2023-08-24T15:23:26;29.00;73.60
19652;DHT22;9974;52.146;14.668;2023-08-24T15:25:58;29.20;74.50
19652;DHT22;9974;52.146;14.668;2023-08-24T15:28:25;28.60;74.00
19652;DHT22;9974;52.146;14.668;2023-08-24T15:33:20;28.30;75.40
19652;DHT22;9974;52.146;14.668;2023-08-24T15:35:47;28.30;71.10
19652;DHT22;9974;52.146;14.668;2023-08-24T15:38:12;28.30;76.40
19652;DHT22;9974;52.146;14.668;2023-08-24T15:40:38;28.20;76.20
19652;DHT22;9974;52.146;14.668;2023-08-24T15:43:05;28.30;77.30
19652;DHT22;9974;52.146;14.668;2023-08-24T15:45:31;28.30;76.20
19652;DHT22;9974;52.146;14.668;2023-08-24T15:50:24;28.70;77.70
19652;DHT22;9974;52.146;14.668;2023-08-24T15:52:50;28.20;78.30
19652;DHT22;9974;52.146;14.668;2023-08-24T15:55:23;28.40;77.80
19652;DHT22;9974;52.146;14.668;2023-08-24T15:57:50;28.30;78.50
19652;DHT22;9974;52.146;14.668;2023-08-24T16:00:16;28.30;77.00
19652;DHT22;9974;52.146;14.668;2023-08-24T16:02:42;28.30;77.90
19652;DHT22;9974;52.146;14.668;2023-08-24T16:05:07;28.20;77.40
19652;DHT22;9974;52.146;14.668;2023-08-24T16:07:33;28.30;77.00
19652;DHT22;9974;52.146;14.668;2023-08-24T16:09:59;28.50;76.90
19652;DHT22;9974;52.146;14.668;2023-08-24T16:12:24;28.30;77.40
19652;DHT22;9974;52.146;14.668;2023-08-24T16:14:50;28.20;76.40
19652;DHT22;9974;52.146;14.668;2023-08-24T16:17:16;28.30;77.20
19652;DHT22;9974;52.146;14.668;2023-08-24T16:19:45;28.10;77.10
19652;DHT22;9974;52.146;14.668;2023-08-24T16:22:10;28.30;78.40
19652;DHT22;9974;52.146;14.668;2023-08-24T16:24:36;28.20;77.60
19652;DHT22;9974;52.146;14.668;2023-08-24T16:27:02;28.30;77.00
19652;DHT22;9974;52.146;14.668;2023-08-24T16:29:27;28.40;79.10
19652;DHT22;9974;52.146;14.668;2023-08-24T16:31:53;27.90;76.00
19652;DHT22;9974;52.146;14.668;2023-08-24T16:34:19;28.50;79.30
19652;DHT22;9974;52.146;14.668;2023-08-24T16:39:13;28.10;77.10
19652;DHT22;9974;52.146;14.668;2023-08-24T16:41:39;28.10;76.00
19652;DHT22;9974;52.146;14.668;2023-08-24T16:44:04;28.10;75.50
19652;DHT22;9974;52.146;14.668;2023-08-24T16:46:30;28.10;75.60
19652;DHT22;9974;52.146;14.668;2023-08-24T16:48:56;28.00;74.30
19652;DHT22;9974;52.146;14.668;2023-08-24T16:51:22;28.10;75.20
19652;DHT22;9974;52.146;14.668;2023-08-24T16:53:48;27.60;75.30
19652;DHT22;9974;52.146;14.668;2023-08-24T16:56:13;27.80;78.20
19652;DHT22;9974;52.146;14.668;2023-08-24T16:58:40;27.90;79.10
19652;DHT22;9974;52.146;14.668;2023-08-24T17:01:10;27.90;79.80
19652;DHT22;9974;52.146;14.668;2023-08-24T17:03:36;27.90;79.90
19652;DHT22;9974;52.146;14.668;2023-08-24T17:06:02;27.70;80.20
19652;DHT22;9974;52.146;14.668;2023-08-24T17:08:27;27.80;80.00
19652;DHT22;9974;52.146;14.668;2023-08-24T17:10:53;27.80;80.00
19652;DHT22;9974;52.146;14.668;2023-08-24T17:13:19;27.70;79.80
19652;DHT22;9974;52.146;14.668;2023-08-24T17:15:51;28.40;80.50
19652;DHT22;9974;52.146;14.668;2023-08-24T17:18:17;28.10;80.20
19652;DHT22;9974;52.146;14.668;2023-08-24T17:20:43;28.20;80.70